Airfield :
LOGIN :

Register | Disclaimer

   EN    FR    IT 

 










Legend :    VFR   Marginal VFR   IFR   Intensive IFR   Very Intensive IFR
Visi :
Ceiling :
>= 8 km
>= 3000ft
5 to 8 km
1000 to 3000 ft
1500m to 5 km
500 to 1000 ft
800 to 1500m
200 to 500 ft
< 800m
< 200 ft
Symbols :   Thunderstorms  Fog  Heavy snow  Heavy precipitations  Wind > 20 kt
SIGMETs :     Misc.  Thunderstorms  Icing  Turbulence  Mountain Waves  Volcanic Ashes







- Airport Elevation : 505 ft
- IATA code : SXB
- Download approach charts


LFST - Strasbourg

CURRENT METAR :
  • 220400Z AUTO 17001KT 7000 1100 R23/P2000 R05/1600D VV/// 06/05 Q1020 TEMPO 0700 BCFG BECMG NSC

EXPIRED METARs :
  • 220330Z AUTO 21002KT 4700 1200 BCFG SCT001 BKN240 06/05 Q1020 TEMPO 0700 BCFG
  • 220300Z AUTO 21001KT 9999 SCT001 06/06 Q1020 TEMPO 0700 BCFG
  • 220230Z AUTO VRB01KT 9999 FEW003 SCT230 06/05 Q1020 TEMPO 0700 BCFG
  • 220200Z AUTO 00000KT CAVOK 06/05 Q1020 TEMPO 0700 BCFG
  • 220130Z AUTO 20001KT CAVOK 06/06 Q1020 TEMPO 0700 BCFG

TAF TAF LFST
Valid from the 22 at 00:00 until the 23 at 00:00 UTC


212300Z 2200/2224 VRB03KT 7000 NSC
BECMG 2200/2203 3500 BR
PROB30 2203/2207 0700 BCFG
BECMG 2207/2209 CAVOK
No reported NOTAMs for that airfield.



MET'MAP, your aeronautical weather chart ! - Copyright ORBIFLY December 2007 - Disclaimer

ORBIFLY MET'MAP TEAM :

Programming & Development : Alexandra Zaïnal
Concept & Development : Baudouin d'Aumeries
Co-Development & Prog : Marc-Olivier Méhu
Technical & hardware support : Manuel Goepfert

Contact : metmap@orbifly.com




SOURCES & CREDITS :

   NOAA